createdAt,value
2022-09-04T00:00:26.377Z,17.49
2022-09-04T00:02:52.697Z,17.56
2022-09-04T00:05:20.202Z,17.52
2022-09-04T00:07:46.745Z,17.39
2022-09-04T00:10:13.058Z,17.43
2022-09-04T00:12:39.361Z,17.48
2022-09-04T00:15:05.664Z,17.51
2022-09-04T00:17:31.964Z,17.52
2022-09-04T00:19:59.524Z,17.51
2022-09-04T00:22:26.249Z,17.50
2022-09-04T00:24:52.547Z,17.50
2022-09-04T00:27:18.853Z,17.47
2022-09-04T00:29:45.157Z,17.46
2022-09-04T00:32:11.466Z,17.47
2022-09-04T00:34:37.785Z,17.46
2022-09-04T00:37:04.521Z,17.49
2022-09-04T00:39:30.836Z,17.45
2022-09-04T00:41:57.169Z,17.43
2022-09-04T00:44:23.472Z,17.44
2022-09-04T00:46:51.899Z,17.45
2022-09-04T00:49:18.204Z,17.45
2022-09-04T00:51:44.508Z,17.46
2022-09-04T00:54:10.807Z,17.44
2022-09-04T00:56:37.140Z,17.40
2022-09-04T00:59:03.445Z,17.39
2022-09-04T01:01:29.834Z,17.37
2022-09-04T01:03:56.617Z,17.36
2022-09-04T01:06:25.020Z,17.33
2022-09-04T01:08:56.213Z,17.24
2022-09-04T01:11:22.917Z,17.24
2022-09-04T01:13:49.230Z,17.27
2022-09-04T01:16:15.811Z,17.26
2022-09-04T01:18:42.139Z,17.26
2022-09-04T01:21:08.495Z,17.25
2022-09-04T01:23:35.182Z,17.27
2022-09-04T01:26:01.501Z,17.26
2022-09-04T01:28:27.886Z,17.25
2022-09-04T01:30:54.182Z,17.20
2022-09-04T01:33:20.485Z,17.21
2022-09-04T01:35:46.783Z,17.17
2022-09-04T01:38:13.079Z,17.18
2022-09-04T01:40:39.399Z,17.20
2022-09-04T01:43:05.699Z,17.18
2022-09-04T01:45:32.051Z,17.13
2022-09-04T01:47:58.373Z,16.95
2022-09-04T01:50:24.691Z,16.87
2022-09-04T01:52:50.999Z,17.02
2022-09-04T01:55:17.344Z,16.96
2022-09-04T01:57:43.647Z,17.04
2022-09-04T02:00:10.276Z,17.09
2022-09-04T02:02:36.681Z,16.79
2022-09-04T02:05:07.733Z,16.91
2022-09-04T02:07:34.730Z,17.00
2022-09-04T02:10:01.028Z,16.87
2022-09-04T02:12:27.378Z,16.49
2022-09-04T02:14:54.019Z,16.77
2022-09-04T02:17:20.377Z,16.91
2022-09-04T02:19:47.661Z,16.99
2022-09-04T02:22:15.166Z,17.04
2022-09-04T02:24:41.460Z,17.06
2022-09-04T02:27:07.764Z,17.05
2022-09-04T02:29:34.067Z,17.08
2022-09-04T02:32:00.429Z,17.08
2022-09-04T02:34:26.763Z,17.09
2022-09-04T02:36:53.066Z,16.91
2022-09-04T02:39:19.393Z,16.71
2022-09-04T02:41:50.715Z,16.75
2022-09-04T02:44:17.020Z,16.63
2022-09-04T02:46:43.578Z,16.80
2022-09-04T02:49:09.888Z,16.90
2022-09-04T02:51:39.192Z,16.94
2022-09-04T02:54:05.498Z,16.80
2022-09-04T02:56:31.803Z,16.84
2022-09-04T02:58:58.108Z,16.89
2022-09-04T03:01:24.437Z,16.91
2022-09-04T03:03:50.793Z,16.93
2022-09-04T03:06:17.099Z,16.92
2022-09-04T03:08:43.400Z,16.92
2022-09-04T03:11:12.464Z,16.89
2022-09-04T03:13:38.759Z,16.90
2022-09-04T03:16:05.118Z,16.83
2022-09-04T03:18:31.467Z,16.82
2022-09-04T03:20:58.030Z,16.83
2022-09-04T03:23:24.535Z,16.81
2022-09-04T03:25:50.865Z,16.82
2022-09-04T03:28:17.245Z,16.81
2022-09-04T03:30:43.568Z,16.73
2022-09-04T03:33:11.136Z,16.74
2022-09-04T03:35:37.715Z,16.67
2022-09-04T03:38:04.027Z,16.66
2022-09-04T03:40:30.376Z,16.59
2022-09-04T03:42:56.687Z,16.71
2022-09-04T03:45:22.996Z,16.67
2022-09-04T03:47:49.321Z,16.70
2022-09-04T03:50:15.629Z,16.74
2022-09-04T03:52:41.977Z,16.33
2022-09-04T03:55:08.281Z,16.51
2022-09-04T03:57:34.605Z,16.41
2022-09-04T04:00:00.953Z,16.49
2022-09-04T04:02:27.322Z,16.37
2022-09-04T04:04:53.667Z,16.44
2022-09-04T04:07:20.005Z,16.52
2022-09-04T04:09:46.303Z,16.56
2022-09-04T04:12:13.069Z,16.59
2022-09-04T04:14:39.417Z,16.59
2022-09-04T04:17:06.004Z,16.60
2022-09-04T04:19:33.741Z,16.60
2022-09-04T04:22:00.055Z,16.67
2022-09-04T04:24:30.418Z,16.48
2022-09-04T04:26:56.725Z,16.55
2022-09-04T04:29:25.340Z,16.58
2022-09-04T04:32:10.423Z,16.57
2022-09-04T04:34:36.729Z,16.39
2022-09-04T04:37:03.053Z,16.53
2022-09-04T04:39:30.382Z,16.47
2022-09-04T04:42:05.889Z,16.56
2022-09-04T04:44:50.976Z,16.60
2022-09-04T04:47:17.292Z,16.67
2022-09-04T04:49:43.599Z,16.66
2022-09-04T04:52:09.917Z,16.69
2022-09-04T04:54:36.226Z,16.74
2022-09-04T04:57:03.724Z,16.68
2022-09-04T04:59:30.020Z,16.67
2022-09-04T05:01:56.468Z,16.69
2022-09-04T05:04:23.180Z,16.71
2022-09-04T05:06:49.807Z,16.74
2022-09-04T05:09:16.112Z,16.77
2022-09-04T05:11:42.409Z,16.66
2022-09-04T05:14:08.707Z,16.72
2022-09-04T05:16:35.072Z,16.75
2022-09-04T05:19:01.428Z,16.55
2022-09-04T05:21:27.747Z,16.62
2022-09-04T05:23:54.047Z,16.51
2022-09-04T05:26:20.393Z,16.47
2022-09-04T05:28:46.725Z,16.39
2022-09-04T05:31:13.116Z,16.53
2022-09-04T05:33:39.448Z,16.60
2022-09-04T05:36:05.755Z,16.62
2022-09-04T05:38:32.047Z,16.67
2022-09-04T05:40:58.368Z,16.72
2022-09-04T05:43:24.664Z,16.65
2022-09-04T05:45:50.986Z,16.73
2022-09-04T05:48:17.295Z,16.54
2022-09-04T05:50:43.652Z,16.59
2022-09-04T05:53:10.021Z,16.76
2022-09-04T05:55:36.331Z,16.91
2022-09-04T05:58:02.644Z,16.98
2022-09-04T06:00:28.939Z,16.93
2022-09-04T06:02:55.367Z,17.06
2022-09-04T06:05:21.741Z,17.14
2022-09-04T06:07:48.055Z,16.95
2022-09-04T06:10:14.359Z,17.18
2022-09-04T06:12:40.683Z,17.02
2022-09-04T06:15:06.991Z,16.85
2022-09-04T06:17:33.292Z,16.84
2022-09-04T06:19:59.594Z,16.98
2022-09-04T06:22:25.908Z,17.00
2022-09-04T06:24:52.229Z,17.16
2022-09-04T06:27:18.527Z,17.42
2022-09-04T06:29:44.832Z,17.50
2022-09-04T06:32:11.127Z,17.70
2022-09-04T06:34:37.435Z,17.80
2022-09-04T06:37:03.734Z,17.94
2022-09-04T06:39:30.675Z,17.82
2022-09-04T06:41:56.963Z,17.90
2022-09-04T06:44:23.445Z,17.77
2022-09-04T06:46:49.828Z,17.99
2022-09-04T06:49:16.184Z,17.90
2022-09-04T06:51:42.917Z,17.92
2022-09-04T06:54:09.227Z,17.89
2022-09-04T06:56:35.535Z,18.35
2022-09-04T06:59:01.845Z,18.60
2022-09-04T07:01:30.068Z,18.66
2022-09-04T07:03:56.466Z,18.74
2022-09-04T07:06:22.913Z,18.60
2022-09-04T07:08:49.212Z,18.81
2022-09-04T07:11:15.557Z,18.92
2022-09-04T07:13:41.864Z,19.05
2022-09-04T07:16:09.335Z,19.14
2022-09-04T07:18:35.708Z,19.15
2022-09-04T07:21:02.262Z,19.44
2022-09-04T07:23:28.732Z,19.57
2022-09-04T07:25:56.648Z,19.74
2022-09-04T07:28:22.879Z,19.41
2022-09-04T07:30:49.236Z,19.48
2022-09-04T07:33:15.921Z,19.55
2022-09-04T07:35:42.263Z,19.84
2022-09-04T07:38:08.560Z,20.02
2022-09-04T07:40:34.878Z,20.14
2022-09-04T07:43:05.885Z,19.53
2022-09-04T07:45:32.380Z,19.92
2022-09-04T07:47:59.057Z,20.24
2022-09-04T07:50:25.431Z,20.06
2022-09-04T07:52:51.969Z,19.54
2022-09-04T07:55:18.260Z,19.81
2022-09-04T07:57:44.563Z,19.95
2022-09-04T08:00:13.586Z,20.13
2022-09-04T08:02:39.957Z,20.26
2022-09-04T08:05:06.334Z,20.45
2022-09-04T08:07:32.663Z,20.64
2022-09-04T08:09:58.960Z,20.76
2022-09-04T08:12:25.639Z,20.34
2022-09-04T08:14:51.939Z,20.35
2022-09-04T08:17:20.810Z,20.54
2022-09-04T08:19:47.130Z,20.51
2022-09-04T08:22:13.505Z,20.95
2022-09-04T08:24:40.523Z,21.05
2022-09-04T08:27:09.233Z,21.27
2022-09-04T08:29:35.528Z,21.65
2022-09-04T08:32:04.409Z,21.60
2022-09-04T08:34:30.711Z,21.59
2022-09-04T08:36:57.028Z,21.33
2022-09-04T08:39:23.449Z,21.39
2022-09-04T08:41:50.043Z,21.46
2022-09-04T08:44:16.354Z,21.45
2022-09-04T08:46:47.462Z,21.60
2022-09-04T08:49:17.014Z,21.55
2022-09-04T08:51:43.333Z,21.65
2022-09-04T08:54:09.638Z,21.82
2022-09-04T08:56:36.274Z,21.94
2022-09-04T08:59:02.585Z,22.23
2022-09-04T09:01:29.502Z,22.18
2022-09-04T09:03:55.935Z,21.97
2022-09-04T09:06:22.291Z,22.20
2022-09-04T09:08:48.695Z,22.59
2022-09-04T09:11:15.007Z,22.73
2022-09-04T09:13:43.590Z,22.60
2022-09-04T09:16:09.900Z,22.59
2022-09-04T09:18:37.290Z,22.69
2022-09-04T09:21:07.038Z,22.88
2022-09-04T09:23:33.360Z,23.02
2022-09-04T09:26:06.219Z,23.20
2022-09-04T09:28:32.812Z,23.22
2022-09-04T09:30:59.172Z,22.98
2022-09-04T09:33:25.548Z,23.30
2022-09-04T09:35:55.858Z,23.56
2022-09-04T09:38:22.241Z,23.13
2022-09-04T09:40:48.540Z,23.29
2022-09-04T09:43:14.876Z,23.08
2022-09-04T09:45:42.027Z,23.37
2022-09-04T09:48:11.522Z,23.62
2022-09-04T09:50:38.421Z,23.80
2022-09-04T09:53:04.725Z,23.75
2022-09-04T09:55:31.024Z,23.77
2022-09-04T09:57:57.343Z,23.74
2022-09-04T10:00:25.655Z,23.94
2022-09-04T10:02:52.003Z,23.59
2022-09-04T10:05:19.276Z,23.94
2022-09-04T10:07:45.667Z,24.20
2022-09-04T10:10:12.206Z,24.32
2022-09-04T10:12:41.816Z,24.29
2022-09-04T10:15:08.127Z,24.48
2022-09-04T10:17:34.427Z,24.45
2022-09-04T10:20:00.731Z,24.43
2022-09-04T10:22:27.023Z,24.58
2022-09-04T10:24:53.597Z,24.53
2022-09-04T10:27:19.895Z,24.72
2022-09-04T10:29:46.418Z,24.37
2022-09-04T10:32:12.728Z,24.34
2022-09-04T10:34:39.045Z,24.38
2022-09-04T10:37:05.350Z,24.46
2022-09-04T10:39:57.716Z,24.59
2022-09-04T10:42:24.067Z,24.52
2022-09-04T10:44:50.520Z,24.68
2022-09-04T10:47:16.828Z,24.81
2022-09-04T10:49:43.137Z,25.07
2022-09-04T10:52:09.670Z,25.23
2022-09-04T10:54:36.004Z,25.23
2022-09-04T10:57:02.304Z,25.07
2022-09-04T10:59:29.136Z,25.11
2022-09-04T11:01:55.490Z,25.03
2022-09-04T11:04:22.466Z,25.27
2022-09-04T11:06:49.361Z,24.83
2022-09-04T11:09:15.668Z,25.13
2022-09-04T11:11:42.142Z,25.11
2022-09-04T11:14:08.441Z,25.25
2022-09-04T11:16:34.805Z,25.33
2022-09-04T11:19:01.158Z,25.02
2022-09-04T11:21:29.173Z,25.52
2022-09-04T11:23:56.270Z,25.83
2022-09-04T11:26:24.428Z,26.02
2022-09-04T11:28:51.309Z,26.13
2022-09-04T11:31:20.753Z,25.33
2022-09-04T11:33:47.883Z,25.58
2022-09-04T11:36:14.282Z,25.73
2022-09-04T11:38:43.786Z,25.89
2022-09-04T11:41:10.187Z,26.04
2022-09-04T11:43:37.414Z,26.24
2022-09-04T11:46:03.950Z,26.12
2022-09-04T11:48:30.303Z,25.94
2022-09-04T11:51:01.446Z,26.18
2022-09-04T11:53:27.797Z,26.10
2022-09-04T11:55:54.095Z,26.20
2022-09-04T11:58:20.507Z,26.25
2022-09-04T12:00:47.173Z,26.25
2022-09-04T12:03:13.483Z,26.59
2022-09-04T12:05:39.771Z,26.44
2022-09-04T12:08:07.049Z,25.57
2022-09-04T12:10:33.364Z,26.10
2022-09-04T12:13:00.434Z,26.02
2022-09-04T12:15:41.183Z,26.19
2022-09-04T12:18:08.435Z,26.12
2022-09-04T12:20:34.731Z,26.24
2022-09-04T12:23:01.610Z,26.14
2022-09-04T12:25:27.923Z,26.31
2022-09-04T12:27:54.261Z,26.13
2022-09-04T12:30:20.567Z,25.83
2022-09-04T12:32:46.882Z,25.77
2022-09-04T12:35:13.272Z,25.91
2022-09-04T12:37:43.415Z,26.03
2022-09-04T12:40:09.825Z,26.13
2022-09-04T12:42:36.237Z,26.11
2022-09-04T12:45:02.592Z,26.21
2022-09-04T12:47:28.915Z,26.01
2022-09-04T12:49:58.115Z,25.98
2022-09-04T12:52:24.424Z,26.12
2022-09-04T12:54:51.219Z,25.68
2022-09-04T12:57:17.482Z,25.38
2022-09-04T12:59:45.556Z,25.13
2022-09-04T13:02:12.092Z,25.51
2022-09-04T13:04:40.531Z,25.74
2022-09-04T13:07:15.656Z,25.65
2022-09-04T13:09:42.751Z,25.92
2022-09-04T13:12:19.692Z,25.80
2022-09-04T13:14:46.138Z,26.07
2022-09-04T13:17:12.573Z,25.68
2022-09-04T13:19:38.901Z,25.53
2022-09-04T13:22:05.224Z,25.47
2022-09-04T13:24:35.769Z,25.42
2022-09-04T13:27:02.508Z,25.68
2022-09-04T13:29:29.465Z,25.67
2022-09-04T13:31:56.152Z,25.80
2022-09-04T13:34:24.231Z,25.81
2022-09-04T13:36:54.125Z,25.84
2022-09-04T13:39:20.754Z,25.56
2022-09-04T13:41:47.941Z,25.57
2022-09-04T13:44:14.276Z,25.61
2022-09-04T13:46:40.648Z,25.59
2022-09-04T13:49:07.048Z,25.59
2022-09-04T13:51:33.355Z,25.88
2022-09-04T13:53:59.672Z,25.92
2022-09-04T13:56:26.324Z,25.86
2022-09-04T13:58:52.632Z,25.36
2022-09-04T14:01:21.661Z,25.73
2022-09-04T14:03:48.643Z,25.75
2022-09-04T14:06:15.018Z,25.69
2022-09-04T14:08:43.104Z,25.88
2022-09-04T14:11:10.021Z,25.72
2022-09-04T14:13:37.987Z,25.68
2022-09-04T14:16:04.522Z,25.56
2022-09-04T14:18:31.087Z,25.74
2022-09-04T14:21:01.597Z,25.80
2022-09-04T14:23:29.712Z,25.68
2022-09-04T14:25:56.040Z,25.69
2022-09-04T14:28:22.476Z,25.72
2022-09-04T14:30:48.786Z,25.62
2022-09-04T14:33:19.470Z,25.83
2022-09-04T14:35:49.292Z,25.71
2022-09-04T14:38:16.212Z,25.93
2022-09-04T14:40:42.517Z,25.87
2022-09-04T14:43:08.829Z,25.88
2022-09-04T14:45:35.264Z,25.79
2022-09-04T14:48:03.594Z,25.89
2022-09-04T14:50:30.229Z,25.86
2022-09-04T14:52:56.548Z,25.87
2022-09-04T14:55:22.847Z,25.60
2022-09-04T14:57:50.176Z,25.78
2022-09-04T15:00:19.742Z,25.90
2022-09-04T15:02:46.064Z,25.92
2022-09-04T15:05:12.388Z,25.65
2022-09-04T15:07:38.688Z,25.87
2022-09-04T15:10:07.329Z,25.78
2022-09-04T15:12:33.663Z,25.61
2022-09-04T15:14:59.963Z,25.56
2022-09-04T15:17:28.291Z,25.54
2022-09-04T15:19:55.421Z,25.52
2022-09-04T15:22:21.725Z,25.53
2022-09-04T15:24:48.041Z,25.34
2022-09-04T15:27:16.277Z,25.30
2022-09-04T15:29:42.921Z,25.33
2022-09-04T15:32:14.017Z,25.42
2022-09-04T15:34:40.747Z,25.45
2022-09-04T15:37:07.046Z,25.57
2022-09-04T15:39:33.420Z,25.33
2022-09-04T15:42:00.091Z,25.39
2022-09-04T15:44:29.953Z,25.45
2022-09-04T15:46:56.718Z,25.30
2022-09-04T15:49:23.035Z,25.38
2022-09-04T15:51:49.344Z,25.52
2022-09-04T15:54:15.675Z,25.55
2022-09-04T15:56:45.401Z,25.66
2022-09-04T15:59:14.720Z,25.45
2022-09-04T16:01:43.095Z,25.18
2022-09-04T16:04:12.525Z,25.29
2022-09-04T16:06:38.824Z,25.25
2022-09-04T16:09:05.135Z,25.35
2022-09-04T16:11:31.542Z,25.27
2022-09-04T16:13:59.057Z,25.26
2022-09-04T16:16:25.385Z,24.88
2022-09-04T16:18:51.760Z,24.94
2022-09-04T16:21:18.365Z,25.07
2022-09-04T16:23:44.671Z,25.13
2022-09-04T16:26:11.288Z,25.14
2022-09-04T16:28:37.926Z,25.06
2022-09-04T16:31:04.637Z,24.79
2022-09-04T16:33:30.920Z,24.79
2022-09-04T16:35:57.219Z,24.92
2022-09-04T16:38:24.356Z,24.80
2022-09-04T16:40:54.225Z,24.80
2022-09-04T16:43:21.532Z,24.92
2022-09-04T16:45:48.495Z,24.80
2022-09-04T16:48:33.725Z,24.82
2022-09-04T16:51:23.506Z,24.91
2022-09-04T16:53:52.124Z,24.62
2022-09-04T16:56:18.424Z,24.63
2022-09-04T16:58:46.080Z,24.54
2022-09-04T17:01:14.361Z,24.59
2022-09-04T17:03:41.750Z,24.43
2022-09-04T17:06:08.996Z,24.47
2022-09-04T17:08:35.321Z,24.23
2022-09-04T17:11:07.683Z,24.41
2022-09-04T17:13:36.907Z,24.31
2022-09-04T17:16:03.509Z,24.28
2022-09-04T17:18:29.916Z,24.29
2022-09-04T17:22:49.964Z,24.29
2022-09-04T17:29:00.322Z,24.13
2022-09-04T17:29:18.361Z,24.10
2022-09-04T17:29:37.337Z,24.06
2022-09-04T17:32:16.343Z,24.02
2022-09-04T17:40:35.701Z,23.90
2022-09-04T17:40:37.146Z,23.81
2022-09-04T17:40:43.498Z,23.91
2022-09-04T17:43:22.261Z,23.77
2022-09-04T17:45:51.271Z,23.87
2022-09-04T17:48:17.801Z,23.82
2022-09-04T17:50:44.795Z,23.80
2022-09-04T17:53:17.709Z,23.73
2022-09-04T17:55:58.827Z,23.72
2022-09-04T17:58:35.175Z,23.61
2022-09-04T18:01:14.716Z,23.67
2022-09-04T18:03:42.242Z,23.60
2022-09-04T18:06:28.528Z,23.64
2022-09-04T18:08:55.945Z,23.56
2022-09-04T18:11:22.844Z,23.24
2022-09-04T18:13:52.005Z,23.02
2022-09-04T18:16:18.399Z,23.22
2022-09-04T18:18:44.780Z,23.24
2022-09-04T18:21:11.072Z,23.23
2022-09-04T18:23:51.679Z,23.11
2022-09-04T18:26:18.575Z,22.92
2022-09-04T18:28:48.643Z,22.91
2022-09-04T18:37:06.723Z,22.85
2022-09-04T18:37:24.340Z,22.57
2022-09-04T18:37:26.040Z,22.90
2022-09-04T18:39:35.929Z,22.71
2022-09-04T18:49:43.080Z,22.71
2022-09-04T18:50:32.230Z,22.73
2022-09-04T18:50:44.415Z,22.75
2022-09-04T18:51:04.454Z,22.75
2022-09-04T18:53:07.461Z,22.75
2022-09-04T18:55:33.758Z,22.75
2022-09-04T18:58:00.054Z,22.74
2022-09-04T19:00:26.397Z,22.62
2022-09-04T19:02:53.422Z,22.31
2022-09-04T19:05:20.166Z,22.34
2022-09-04T19:07:46.499Z,22.38
2022-09-04T19:10:12.939Z,22.40
2022-09-04T19:12:46.953Z,22.19
2022-09-04T19:15:14.969Z,22.25
2022-09-04T19:17:41.263Z,22.19
2022-09-04T19:20:08.611Z,21.99
2022-09-04T19:22:34.997Z,22.07
2022-09-04T19:25:03.731Z,22.13
2022-09-04T19:27:29.950Z,22.06
2022-09-04T19:29:56.298Z,22.04
2022-09-04T19:32:29.943Z,21.98
2022-09-04T19:34:56.236Z,21.98
2022-09-04T19:37:54.356Z,21.90
2022-09-04T19:45:54.750Z,21.94
2022-09-04T19:46:12.821Z,21.95
2022-09-04T19:46:13.087Z,21.89
2022-09-04T19:48:27.973Z,21.87
2022-09-04T19:53:33.979Z,21.84
2022-09-04T19:53:46.937Z,21.85
2022-09-04T19:56:15.924Z,21.65
2022-09-04T19:58:44.335Z,21.71
2022-09-04T20:01:10.825Z,21.68
2022-09-04T20:03:37.560Z,21.68
2022-09-04T20:06:21.171Z,21.57
2022-09-04T20:08:51.547Z,21.59
2022-09-04T20:11:30.635Z,21.63
2022-09-04T20:14:02.443Z,21.57
2022-09-04T20:16:40.565Z,21.53
2022-09-04T20:19:14.893Z,21.52
2022-09-04T20:21:46.570Z,21.47
2022-09-04T20:24:12.875Z,21.46
2022-09-04T20:26:39.182Z,21.39
2022-09-04T20:29:05.484Z,21.40
2022-09-04T20:31:36.167Z,21.35
2022-09-04T20:34:03.323Z,21.13
2022-09-04T20:36:35.969Z,21.14
2022-09-04T20:39:02.492Z,21.15
2022-09-04T20:41:29.195Z,20.88
2022-09-04T20:43:56.057Z,21.03
2022-09-04T21:03:21.497Z,20.83
2022-09-04T21:03:39.968Z,20.77
2022-09-04T21:06:07.338Z,20.71
2022-09-04T21:08:34.069Z,20.68
2022-09-04T21:11:00.387Z,20.61
2022-09-04T21:13:26.825Z,20.60
2022-09-04T21:15:53.455Z,20.55
2022-09-04T21:18:23.316Z,20.54
2022-09-04T21:21:00.318Z,20.46
2022-09-04T21:23:27.028Z,20.40
2022-09-04T21:26:02.048Z,20.37
2022-09-04T21:28:28.353Z,20.29
2022-09-04T21:30:54.715Z,20.32
2022-09-04T21:33:28.098Z,20.30
2022-09-04T21:35:55.726Z,20.29
2022-09-04T21:38:26.635Z,20.23
2022-09-04T21:40:53.047Z,20.18
2022-09-04T21:43:19.470Z,20.13
2022-09-04T21:45:45.813Z,20.09
2022-09-04T21:48:18.488Z,19.99
2022-09-04T21:50:50.691Z,20.03
2022-09-04T21:53:18.859Z,19.97
2022-09-04T22:00:02.066Z,19.84
2022-09-04T22:02:37.438Z,19.81
2022-09-04T22:02:41.884Z,19.77
2022-09-04T22:04:04.481Z,19.84
2022-09-04T22:07:03.516Z,19.78
2022-09-04T22:13:30.723Z,19.78
2022-09-04T22:13:32.523Z,19.79
2022-09-04T22:14:50.088Z,19.63
2022-09-04T22:17:16.389Z,19.69
2022-09-04T22:19:42.722Z,19.66
2022-09-04T22:22:09.036Z,19.61
2022-09-04T22:24:41.074Z,19.55
2022-09-04T22:27:07.792Z,19.53
2022-09-04T22:29:40.212Z,19.47
2022-09-04T22:32:06.746Z,19.39
2022-09-04T22:34:39.282Z,19.35
2022-09-04T22:37:05.588Z,19.31
2022-09-04T22:39:32.347Z,19.29
2022-09-04T22:41:58.687Z,19.22
2022-09-04T22:44:24.987Z,19.18
2022-09-04T22:46:51.319Z,19.16
2022-09-04T22:49:17.633Z,19.13
2022-09-04T22:51:43.965Z,19.11
2022-09-04T22:54:10.286Z,19.06
2022-09-04T22:56:36.579Z,18.94
2022-09-04T22:59:10.533Z,18.94
2022-09-04T23:01:49.217Z,18.92
2022-09-04T23:04:15.594Z,18.75
2022-09-04T23:10:05.078Z,18.79
2022-09-04T23:13:50.172Z,18.77
2022-09-04T23:14:01.501Z,18.73
2022-09-04T23:15:08.279Z,18.70
2022-09-04T23:17:35.265Z,18.67
2022-09-04T23:26:36.978Z,18.69
2022-09-04T23:26:43.385Z,18.61
2022-09-04T23:26:51.088Z,18.61
2022-09-04T23:28:28.242Z,18.53
2022-09-04T23:30:55.025Z,18.56
2022-09-04T23:33:27.962Z,18.46
2022-09-04T23:35:54.584Z,18.44
2022-09-04T23:38:20.896Z,18.41
2022-09-04T23:40:47.263Z,18.44
2022-09-04T23:43:13.572Z,18.43
2022-09-04T23:45:49.592Z,18.43
2022-09-04T23:48:26.440Z,18.38
2022-09-04T23:50:52.742Z,18.37
2022-09-04T23:53:19.135Z,18.28
2022-09-04T23:55:48.889Z,18.31
2022-09-04T23:58:34.544Z,18.31
